Time;durP1;ratioP1;P1;durP2;ratioP2;P2;SDS_P1;SDS_P2;PMS_P1;PMS_P2;Temp;Humidity;BMP_temperature;BMP_pressure;BME280_temperature;BME280_humidity;BME280_pressure;Samples;Min_cycle;Max_cycle;Signal;HPM_P1;HPM_P2
2023/11/27 00:00:44;;;;;;;;;;;5.70;99.90;;;;;;8368485;28;19928;-72
2023/11/27 00:04:45;;;;;;;;;;;5.70;99.90;;;;;;8369005;28;19931;-71
2023/11/27 00:08:47;;;;;;;;;;;5.70;99.90;;;;;;8380799;28;19924;-71
2023/11/27 00:12:49;;;;;;;;;;;5.70;99.90;;;;;;8392726;28;19925;-72
2023/11/27 00:16:50;;;;;;;;;;;5.70;99.90;;;;;;8361600;28;20713;-71
2023/11/27 00:20:52;;;;;;;;;;;5.70;99.90;;;;;;8385062;28;19924;-70
2023/11/27 00:24:54;;;;;;;;;;;5.70;99.90;;;;;;8376771;28;19925;-71
2023/11/27 00:28:55;;;;;;;;;;;5.70;99.90;;;;;;8386853;28;20397;-71
2023/11/27 00:32:57;;;;;;;;;;;5.70;99.90;;;;;;8383046;28;19928;-71
2023/11/27 00:36:59;;;;;;;;;;;5.70;99.90;;;;;;8367105;28;20265;-71
2023/11/27 00:41:01;;;;;;;;;;;5.70;99.90;;;;;;8393241;28;19932;-72
2023/11/27 00:45:05;;;;;;;;;;;5.70;99.90;;;;;;8389314;28;19933;-71
2023/11/27 00:49:07;;;;;;;;;;;5.70;99.90;;;;;;8383401;28;20469;-71
2023/11/27 00:53:09;;;;;;;;;;;5.70;99.90;;;;;;8384959;28;21287;-71
2023/11/27 00:57:11;;;;;;;;;;;5.70;99.90;;;;;;8398948;28;20279;-71
2023/11/27 01:01:13;;;;;;;;;;;5.60;99.90;;;;;;8370553;28;19924;-71
2023/11/27 01:05:15;;;;;;;;;;;5.60;99.90;;;;;;8382143;28;20335;-71
2023/11/27 01:09:18;;;;;;;;;;;5.60;99.90;;;;;;8373157;28;19932;-71
2023/11/27 01:13:19;;;;;;;;;;;5.60;99.90;;;;;;8392547;28;20431;-71
2023/11/27 01:17:21;;;;;;;;;;;5.60;99.90;;;;;;8370463;28;19933;-71
2023/11/27 01:21:23;;;;;;;;;;;5.50;99.90;;;;;;8387105;28;19956;-72
2023/11/27 01:25:24;;;;;;;;;;;5.40;99.90;;;;;;8393263;28;19931;-71
2023/11/27 01:29:26;;;;;;;;;;;5.40;99.90;;;;;;8394440;28;19939;-71
2023/11/27 01:33:28;;;;;;;;;;;5.40;99.90;;;;;;8389695;28;20389;-71
2023/11/27 01:37:29;;;;;;;;;;;5.40;99.90;;;;;;8386547;28;19931;-71
2023/11/27 01:41:31;;;;;;;;;;;5.30;99.90;;;;;;8373484;28;20341;-71
2023/11/27 01:45:33;;;;;;;;;;;5.30;99.90;;;;;;8389545;28;19932;-71
2023/11/27 01:49:37;;;;;;;;;;;5.30;99.90;;;;;;8385293;28;19924;-71
2023/11/27 01:53:39;;;;;;;;;;;5.30;99.90;;;;;;8388818;28;20167;-71
2023/11/27 01:57:41;;;;;;;;;;;5.30;99.90;;;;;;8391248;28;19927;-71
2023/11/27 02:01:43;;;;;;;;;;;5.30;99.90;;;;;;8382915;28;19924;-71
2023/11/27 02:05:45;;;;;;;;;;;5.30;99.90;;;;;;8397593;28;19924;-71
2023/11/27 02:09:46;;;;;;;;;;;5.30;99.90;;;;;;8385004;28;19931;-71
2023/11/27 02:13:48;;;;;;;;;;;5.30;99.90;;;;;;8369129;28;20333;-71
2023/11/27 02:17:50;;;;;;;;;;;5.30;99.90;;;;;;8376443;28;19955;-71
2023/11/27 02:21:52;;;;;;;;;;;5.30;99.90;;;;;;8370046;28;20560;-71
2023/11/27 02:25:53;;;;;;;;;;;5.30;99.90;;;;;;8388083;28;19925;-71
2023/11/27 02:29:55;;;;;;;;;;;5.30;99.90;;;;;;8402008;28;19928;-71
2023/11/27 02:33:57;;;;;;;;;;;5.30;99.90;;;;;;8381274;28;19968;-72
2023/11/27 02:38:00;;;;;;;;;;;5.30;99.90;;;;;;8351226;28;20354;-71
2023/11/27 02:42:02;;;;;;;;;;;5.30;99.90;;;;;;8374837;28;19932;-71
2023/11/27 02:46:05;;;;;;;;;;;5.30;99.90;;;;;;8387824;28;19925;-72
2023/11/27 02:50:08;;;;;;;;;;;5.30;99.90;;;;;;8392993;28;19924;-71
2023/11/27 02:54:10;;;;;;;;;;;5.30;99.90;;;;;;8394786;28;19995;-71
2023/11/27 02:58:12;;;;;;;;;;;5.30;99.90;;;;;;8392988;28;19935;-71
2023/11/27 03:02:13;;;;;;;;;;;5.30;99.90;;;;;;8383369;28;20303;-71
2023/11/27 03:06:15;;;;;;;;;;;5.30;99.90;;;;;;8386499;28;19924;-71
2023/11/27 03:10:17;;;;;;;;;;;5.30;99.90;;;;;;8393206;28;19924;-71
2023/11/27 03:14:19;;;;;;;;;;;5.30;99.90;;;;;;8363649;28;19925;-71
2023/11/27 03:18:21;;;;;;;;;;;5.30;99.90;;;;;;8369501;28;19925;-71
2023/11/27 03:22:23;;;;;;;;;;;5.30;99.90;;;;;;8389888;28;19924;-72
2023/11/27 03:26:25;;;;;;;;;;;5.30;99.90;;;;;;8381758;28;19932;-71
2023/11/27 03:30:26;;;;;;;;;;;5.30;99.90;;;;;;8389983;28;19932;-72
2023/11/27 03:34:28;;;;;;;;;;;5.30;99.90;;;;;;8386785;28;19954;-71
2023/11/27 03:38:30;;;;;;;;;;;5.30;99.90;;;;;;8365350;28;19931;-71
2023/11/27 03:42:32;;;;;;;;;;;5.30;99.90;;;;;;8385269;28;19924;-71
2023/11/27 03:51:52;;;;;;;;;;;5.30;99.90;;;;;;8387729;28;20379;-71
2023/11/27 03:55:54;;;;;;;;;;;5.30;99.90;;;;;;8372502;28;19931;-71
2023/11/27 03:59:55;;;;;;;;;;;5.30;99.90;;;;;;8388323;28;20363;-72
2023/11/27 04:03:58;;;;;;;;;;;5.30;99.90;;;;;;8375895;28;19928;-71
2023/11/27 04:07:59;;;;;;;;;;;5.30;99.90;;;;;;8377028;28;19990;-71
2023/11/27 04:12:03;;;;;;;;;;;5.30;99.90;;;;;;8395048;28;19931;-71
2023/11/27 04:16:05;;;;;;;;;;;5.20;99.90;;;;;;8384190;28;19928;-71
2023/11/27 04:20:11;;;;;;;;;;;5.20;99.90;;;;;;8384655;28;20016;-71
2023/11/27 04:24:13;;;;;;;;;;;5.20;99.90;;;;;;8397700;28;19932;-71
2023/11/27 04:28:15;;;;;;;;;;;5.20;99.90;;;;;;8388657;28;20352;-70
2023/11/27 04:32:16;;;;;;;;;;;5.20;99.90;;;;;;8369422;28;19938;-71
2023/11/27 04:36:18;;;;;;;;;;;5.20;99.90;;;;;;8390134;28;19971;-71
2023/11/27 04:40:20;;;;;;;;;;;5.20;99.90;;;;;;8397164;28;20336;-71
2023/11/27 04:44:23;;;;;;;;;;;5.10;99.90;;;;;;8398806;28;19950;-71
2023/11/27 04:48:25;;;;;;;;;;;5.10;99.90;;;;;;8385944;28;20087;-71
2023/11/27 04:52:27;;;;;;;;;;;5.10;99.90;;;;;;8395292;28;19932;-71
2023/11/27 04:56:29;;;;;;;;;;;5.10;99.90;;;;;;8393666;28;19928;-71
2023/11/27 05:00:30;;;;;;;;;;;5.10;99.90;;;;;;8398516;28;19958;-71
2023/11/27 05:04:33;;;;;;;;;;;5.10;99.90;;;;;;8404460;28;19939;-71
2023/11/27 05:08:35;;;;;;;;;;;5.00;99.90;;;;;;8401456;28;20272;-71
2023/11/27 05:12:37;;;;;;;;;;;5.10;99.90;;;;;;8394845;28;19978;-70
2023/11/27 05:16:38;;;;;;;;;;;5.10;99.90;;;;;;8384822;28;19955;-71
2023/11/27 05:20:42;;;;;;;;;;;5.00;99.90;;;;;;8366712;28;20012;-71
2023/11/27 05:24:44;;;;;;;;;;;5.00;99.90;;;;;;8380843;28;19925;-71
2023/11/27 05:28:45;;;;;;;;;;;5.00;99.90;;;;;;8384763;28;19964;-71
2023/11/27 05:32:50;;;;;;;;;;;4.90;99.90;;;;;;8369503;28;19925;-71
2023/11/27 05:36:52;;;;;;;;;;;4.90;99.90;;;;;;8371398;28;20126;-71
2023/11/27 05:40:56;;;;;;;;;;;4.90;99.90;;;;;;8380192;28;19932;-71
2023/11/27 05:44:59;;;;;;;;;;;4.90;99.90;;;;;;8360352;28;19928;-71
2023/11/27 05:49:01;;;;;;;;;;;4.90;99.90;;;;;;8376277;28;19939;-71
2023/11/27 05:53:03;;;;;;;;;;;4.90;99.90;;;;;;8376284;28;19932;-71
2023/11/27 05:57:05;;;;;;;;;;;5.00;99.90;;;;;;8375905;28;19932;-71
2023/11/27 06:01:07;;;;;;;;;;;4.90;99.90;;;;;;8374714;28;19940;-71
2023/11/27 06:05:09;;;;;;;;;;;4.90;99.90;;;;;;8383679;28;19924;-71
2023/11/27 06:09:11;;;;;;;;;;;4.90;99.90;;;;;;8388002;28;19925;-71
2023/11/27 06:13:13;;;;;;;;;;;4.90;99.90;;;;;;8393954;28;20022;-71
2023/11/27 06:17:14;;;;;;;;;;;4.90;99.90;;;;;;8355513;28;20020;-71
2023/11/27 06:21:16;;;;;;;;;;;4.80;99.90;;;;;;8358309;28;19928;-72
2023/11/27 06:25:18;;;;;;;;;;;4.90;99.90;;;;;;8368337;28;20062;-71
2023/11/27 06:29:20;;;;;;;;;;;4.90;99.90;;;;;;8372293;28;20359;-71
2023/11/27 06:33:21;;;;;;;;;;;4.90;99.90;;;;;;8372957;28;19924;-71
2023/11/27 06:37:23;;;;;;;;;;;4.80;99.90;;;;;;8369363;28;19928;-72
2023/11/27 06:41:25;;;;;;;;;;;4.80;99.90;;;;;;8378266;28;19928;-71
2023/11/27 06:45:27;;;;;;;;;;;4.80;99.90;;;;;;8377305;28;19924;-71
2023/11/27 06:49:29;;;;;;;;;;;4.80;99.90;;;;;;8383368;28;20380;-72
2023/11/27 06:53:31;;;;;;;;;;;4.80;99.90;;;;;;8380880;28;19932;-72
2023/11/27 06:57:32;;;;;;;;;;;4.80;99.90;;;;;;8361498;28;20013;-72
2023/11/27 07:01:38;;;;;;;;;;;4.80;99.90;;;;;;8382456;28;19994;-71
2023/11/27 07:05:40;;;;;;;;;;;4.80;99.90;;;;;;8379011;28;19924;-71
2023/11/27 07:09:41;;;;;;;;;;;4.80;99.90;;;;;;8381930;28;19924;-71
2023/11/27 07:13:44;;;;;;;;;;;4.80;99.90;;;;;;8380900;28;19970;-71
2023/11/27 07:17:46;;;;;;;;;;;4.80;99.90;;;;;;8385405;28;19925;-72
2023/11/27 07:21:47;;;;;;;;;;;4.80;99.90;;;;;;8367089;28;19971;-71
2023/11/27 07:25:49;;;;;;;;;;;4.80;99.90;;;;;;8378925;28;19924;-71
2023/11/27 07:29:52;;;;;;;;;;;4.80;99.90;;;;;;8397796;28;20320;-71
2023/11/27 07:33:54;;;;;;;;;;;4.80;99.90;;;;;;8358324;28;19932;-72
2023/11/27 07:37:55;;;;;;;;;;;4.80;99.90;;;;;;8378602;28;19924;-71
2023/11/27 07:41:57;;;;;;;;;;;4.70;99.90;;;;;;8390582;28;20303;-71
2023/11/27 07:45:59;;;;;;;;;;;4.80;99.90;;;;;;8383554;28;20271;-71
2023/11/27 07:50:01;;;;;;;;;;;4.80;99.90;;;;;;8397962;28;19925;-71
2023/11/27 07:54:03;;;;;;;;;;;4.80;99.90;;;;;;8387543;28;19977;-71
2023/11/27 07:58:04;;;;;;;;;;;4.80;99.90;;;;;;8360902;28;20395;-71
2023/11/27 08:02:06;;;;;;;;;;;4.80;99.90;;;;;;8388893;28;19967;-71
2023/11/27 08:06:09;;;;;;;;;;;4.80;99.90;;;;;;8357838;28;19928;-71
2023/11/27 08:10:10;;;;;;;;;;;4.80;99.90;;;;;;8383893;28;20209;-71
2023/11/27 08:14:13;;;;;;;;;;;4.80;99.90;;;;;;8381389;28;19936;-71
2023/11/27 08:18:15;;;;;;;;;;;4.80;99.90;;;;;;8375363;28;19982;-71
2023/11/27 08:22:17;;;;;;;;;;;4.80;99.90;;;;;;8390982;28;19963;-71
2023/11/27 08:26:19;;;;;;;;;;;4.80;99.90;;;;;;8373080;28;19935;-72
2023/11/27 08:30:22;;;;;;;;;;;4.80;99.90;;;;;;8365896;28;19981;-71
2023/11/27 08:34:23;;;;;;;;;;;4.80;99.90;;;;;;8386603;28;19971;-71
2023/11/27 08:38:25;;;;;;;;;;;4.80;99.90;;;;;;8364830;28;20066;-71
2023/11/27 08:42:27;;;;;;;;;;;4.80;99.90;;;;;;8382178;28;20190;-71
2023/11/27 08:46:29;;;;;;;;;;;4.80;99.90;;;;;;8386951;28;20295;-71
2023/11/27 08:50:36;;;;;;;;;;;4.80;99.90;;;;;;8377407;28;19970;-72
2023/11/27 08:54:37;;;;;;;;;;;4.90;99.90;;;;;;8398553;28;19924;-72
2023/11/27 08:58:39;;;;;;;;;;;4.90;99.90;;;;;;8362844;28;20321;-71
2023/11/27 09:02:41;;;;;;;;;;;4.90;99.90;;;;;;8389789;28;20004;-72
2023/11/27 09:06:43;;;;;;;;;;;4.90;99.90;;;;;;8391141;28;19924;-71
2023/11/27 09:10:45;;;;;;;;;;;4.90;99.90;;;;;;8370490;28;19924;-71
2023/11/27 09:14:46;;;;;;;;;;;4.90;99.90;;;;;;8384017;28;19974;-71
2023/11/27 09:18:48;;;;;;;;;;;4.90;99.90;;;;;;8394142;28;19964;-71
2023/11/27 09:22:52;;;;;;;;;;;4.90;99.90;;;;;;8390370;28;19928;-72
2023/11/27 09:26:55;;;;;;;;;;;4.90;99.90;;;;;;8405497;28;19924;-71
2023/11/27 09:30:56;;;;;;;;;;;4.90;99.90;;;;;;8391858;28;19993;-71
2023/11/27 09:34:58;;;;;;;;;;;4.90;99.90;;;;;;8376742;28;19938;-71
2023/11/27 09:39:00;;;;;;;;;;;5.00;99.90;;;;;;8381242;28;19925;-71
2023/11/27 09:43:03;;;;;;;;;;;5.00;99.90;;;;;;8381590;28;19924;-71
2023/11/27 09:47:06;;;;;;;;;;;5.00;99.90;;;;;;8390297;28;20264;-71
2023/11/27 09:51:10;;;;;;;;;;;5.10;99.90;;;;;;8387249;28;19982;-71
2023/11/27 09:55:14;;;;;;;;;;;5.10;99.90;;;;;;8382960;28;19931;-71
2023/11/27 09:59:17;;;;;;;;;;;5.10;99.90;;;;;;8386693;28;19946;-71
2023/11/27 10:03:19;;;;;;;;;;;5.10;99.90;;;;;;8389870;28;20476;-71
2023/11/27 10:07:21;;;;;;;;;;;5.20;99.90;;;;;;8403504;28;19978;-72
2023/11/27 10:11:25;;;;;;;;;;;5.20;99.90;;;;;;8390780;28;19929;-71
2023/11/27 10:15:27;;;;;;;;;;;5.20;99.90;;;;;;8388942;28;19958;-72
2023/11/27 10:19:29;;;;;;;;;;;5.20;99.90;;;;;;8383291;28;20016;-72
2023/11/27 10:23:31;;;;;;;;;;;5.20;99.90;;;;;;8386083;28;19924;-72
2023/11/27 10:27:33;;;;;;;;;;;5.30;99.90;;;;;;8381896;28;19952;-72
2023/11/27 10:31:36;;;;;;;;;;;5.30;99.90;;;;;;8368284;28;19928;-71
2023/11/27 10:35:41;;;;;;;;;;;5.30;99.90;;;;;;8386873;28;19931;-72
2023/11/27 10:39:48;;;;;;;;;;;5.30;99.90;;;;;;8382748;28;19978;-72
2023/11/27 10:43:50;;;;;;;;;;;5.30;99.90;;;;;;8378954;28;20399;-71
2023/11/27 10:47:53;;;;;;;;;;;5.40;99.90;;;;;;8388850;28;19936;-72
2023/11/27 10:51:55;;;;;;;;;;;5.40;99.90;;;;;;8378975;28;19994;-71
2023/11/27 10:55:58;;;;;;;;;;;5.40;99.90;;;;;;8368764;28;19979;-72
2023/11/27 10:59:59;;;;;;;;;;;5.40;99.90;;;;;;8377309;28;19924;-71
2023/11/27 11:04:09;;;;;;;;;;;5.50;99.90;;;;;;8393961;28;19925;-71
2023/11/27 11:08:11;;;;;;;;;;;5.50;99.90;;;;;;8367819;28;19997;-72
2023/11/27 11:12:14;;;;;;;;;;;5.50;99.90;;;;;;8374199;28;20387;-73
2023/11/27 11:16:24;;;;;;;;;;;5.60;99.90;;;;;;8368906;28;19924;-72
2023/11/27 11:20:30;;;;;;;;;;;5.60;99.90;;;;;;8379599;28;19925;-72
2023/11/27 11:24:41;;;;;;;;;;;5.50;99.90;;;;;;8359932;28;20028;-71
2023/11/27 11:28:49;;;;;;;;;;;5.50;99.90;;;;;;8365984;28;19931;-71
2023/11/27 11:32:52;;;;;;;;;;;5.60;99.90;;;;;;8385277;28;19932;-72
2023/11/27 11:36:55;;;;;;;;;;;5.60;99.90;;;;;;8354962;28;20352;-71
2023/11/27 11:40:56;;;;;;;;;;;5.60;99.90;;;;;;8368672;28;20329;-72
2023/11/27 11:45:24;;;;;;;;;;;5.60;99.90;;;;;;8373162;28;19986;-72
2023/11/27 11:49:28;;;;;;;;;;;5.70;99.90;;;;;;8361538;28;20265;-72
2023/11/27 11:53:33;;;;;;;;;;;5.70;99.90;;;;;;8373162;28;19948;-71
2023/11/27 11:57:35;;;;;;;;;;;5.70;99.90;;;;;;8371322;28;19972;-71
2023/11/27 12:01:40;;;;;;;;;;;5.70;99.90;;;;;;8404262;28;19963;-72
2023/11/27 12:05:49;;;;;;;;;;;5.70;99.90;;;;;;8389773;28;20278;-71
2023/11/27 12:09:51;;;;;;;;;;;5.70;99.90;;;;;;8373525;28;19982;-71
2023/11/27 12:13:53;;;;;;;;;;;5.70;99.90;;;;;;8391448;28;19932;-71
2023/11/27 12:17:55;;;;;;;;;;;5.80;99.90;;;;;;8363882;28;19932;-72
2023/11/27 12:21:59;;;;;;;;;;;5.80;99.90;;;;;;8383945;28;20431;-71
2023/11/27 12:26:06;;;;;;;;;;;5.80;99.90;;;;;;8391197;28;19924;-72
2023/11/27 12:30:08;;;;;;;;;;;5.80;99.90;;;;;;8382293;28;19925;-72
2023/11/27 12:34:13;;;;;;;;;;;5.80;99.90;;;;;;8387122;28;20371;-72
2023/11/27 12:38:16;;;;;;;;;;;5.80;99.90;;;;;;8352648;28;19929;-71
2023/11/27 12:42:19;;;;;;;;;;;5.90;99.90;;;;;;8354704;28;19979;-71
2023/11/27 12:46:23;;;;;;;;;;;5.90;99.90;;;;;;8348793;28;19929;-72
2023/11/27 12:50:29;;;;;;;;;;;5.90;99.90;;;;;;8350280;28;20284;-71
2023/11/27 12:54:35;;;;;;;;;;;5.90;99.90;;;;;;8359808;28;19936;-72
2023/11/27 12:58:38;;;;;;;;;;;6.00;99.90;;;;;;8355903;28;19952;-71
2023/11/27 13:02:43;;;;;;;;;;;6.00;99.90;;;;;;8384228;28;19925;-72
2023/11/27 13:06:45;;;;;;;;;;;6.00;99.90;;;;;;8367758;28;19932;-71
2023/11/27 13:10:47;;;;;;;;;;;6.10;99.90;;;;;;8378870;28;19925;-71
2023/11/27 13:14:49;;;;;;;;;;;6.10;99.90;;;;;;8349536;28;19987;-71
2023/11/27 13:18:51;;;;;;;;;;;6.10;99.90;;;;;;8342101;28;19929;-71
2023/11/27 13:22:53;;;;;;;;;;;6.20;99.90;;;;;;8351081;28;19932;-72
2023/11/27 13:26:55;;;;;;;;;;;6.20;99.90;;;;;;8359009;28;19933;-71
2023/11/27 13:30:59;;;;;;;;;;;6.20;99.90;;;;;;8343944;28;19929;-72
2023/11/27 13:35:03;;;;;;;;;;;6.20;99.90;;;;;;8348788;28;19929;-71
2023/11/27 13:39:09;;;;;;;;;;;6.20;99.90;;;;;;8382417;28;20383;-72
2023/11/27 13:43:13;;;;;;;;;;;6.20;99.90;;;;;;8382621;28;19932;-72
2023/11/27 13:47:20;;;;;;;;;;;6.20;99.90;;;;;;8383334;28;20352;-71
2023/11/27 13:51:21;;;;;;;;;;;6.30;99.90;;;;;;8382341;28;19935;-72
2023/11/27 13:55:23;;;;;;;;;;;6.30;99.90;;;;;;8384109;28;20263;-72
2023/11/27 13:59:27;;;;;;;;;;;6.30;99.90;;;;;;8380254;28;19925;-71
2023/11/27 14:03:32;;;;;;;;;;;6.30;99.90;;;;;;8382369;28;20357;-72
2023/11/27 14:07:40;;;;;;;;;;;6.30;99.90;;;;;;8369456;28;19928;-71
2023/11/27 14:11:47;;;;;;;;;;;6.30;99.90;;;;;;8401384;28;20359;-72
2023/11/27 14:15:50;;;;;;;;;;;6.30;99.90;;;;;;8382781;28;19952;-72
2023/11/27 14:24:14;;;;;;;;;;;6.40;99.90;;;;;;8378179;28;19929;-72
2023/11/27 14:29:08;;;;;;;;;;;6.40;99.90;;;;;;8386928;28;19925;-72
2023/11/27 14:32:39;;;;;;;;;;;6.40;99.90;;;;;;8375694;28;19948;-71
2023/11/27 14:36:42;;;;;;;;;;;6.40;99.90;;;;;;8381519;28;20314;-72
2023/11/27 14:40:43;;;;;;;;;;;6.40;99.90;;;;;;8357488;28;20441;-71
2023/11/27 14:44:45;;;;;;;;;;;6.40;99.90;;;;;;8381784;28;19935;-72
2023/11/27 14:48:47;;;;;;;;;;;6.40;99.90;;;;;;8363877;28;19974;-71
2023/11/27 14:52:49;;;;;;;;;;;6.40;99.90;;;;;;8366901;28;20364;-72
2023/11/27 14:56:51;;;;;;;;;;;6.40;99.90;;;;;;8363389;28;19924;-71
2023/11/27 15:00:56;;;;;;;;;;;6.40;99.90;;;;;;8392072;28;19928;-72
2023/11/27 15:04:58;;;;;;;;;;;6.40;99.90;;;;;;8367847;28;19928;-71
2023/11/27 15:09:00;;;;;;;;;;;6.40;99.90;;;;;;8399832;28;19924;-71
2023/11/27 15:13:01;;;;;;;;;;;6.40;99.90;;;;;;8384426;28;19981;-72
2023/11/27 15:17:07;;;;;;;;;;;6.40;99.90;;;;;;8378610;28;19975;-72
2023/11/27 15:21:09;;;;;;;;;;;6.40;99.90;;;;;;8377976;28;19925;-71
2023/11/27 15:25:16;;;;;;;;;;;6.50;99.90;;;;;;8373661;28;19925;-72
2023/11/27 15:29:18;;;;;;;;;;;6.50;99.90;;;;;;8372963;28;19924;-72
2023/11/27 15:33:23;;;;;;;;;;;6.50;99.90;;;;;;8356373;28;19970;-71
2023/11/27 15:37:27;;;;;;;;;;;6.50;99.90;;;;;;8384947;28;19931;-71
2023/11/27 15:41:31;;;;;;;;;;;6.50;99.90;;;;;;8384051;28;19929;-72
2023/11/27 15:45:32;;;;;;;;;;;6.50;99.90;;;;;;8376861;28;20404;-72
2023/11/27 15:49:34;;;;;;;;;;;6.50;99.90;;;;;;8377911;28;19935;-72
2023/11/27 15:53:36;;;;;;;;;;;6.50;99.90;;;;;;8382399;28;19934;-72
2023/11/27 15:57:47;;;;;;;;;;;6.50;99.90;;;;;;8376442;28;19928;-72
2023/11/27 16:01:49;;;;;;;;;;;6.50;99.90;;;;;;8392444;28;19933;-72
2023/11/27 16:05:51;;;;;;;;;;;6.40;99.90;;;;;;8364479;28;20008;-72
2023/11/27 16:09:52;;;;;;;;;;;6.40;99.90;;;;;;8385871;28;20026;-72
2023/11/27 16:13:56;;;;;;;;;;;6.40;99.90;;;;;;8408944;28;19951;-72
2023/11/27 16:17:58;;;;;;;;;;;6.40;99.90;;;;;;8388270;28;19935;-72
2023/11/27 16:22:01;;;;;;;;;;;6.40;99.90;;;;;;8381850;28;20401;-72
2023/11/27 16:26:07;;;;;;;;;;;6.40;99.90;;;;;;8378085;28;19928;-73
2023/11/27 16:30:09;;;;;;;;;;;6.40;99.90;;;;;;8388738;28;19948;-73
2023/11/27 16:34:14;;;;;;;;;;;6.30;99.90;;;;;;8378665;28;19933;-72
2023/11/27 16:38:16;;;;;;;;;;;6.30;99.90;;;;;;8382392;28;20379;-72
2023/11/27 16:42:18;;;;;;;;;;;6.30;99.90;;;;;;8342585;28;19925;-72
2023/11/27 16:46:20;;;;;;;;;;;6.20;99.90;;;;;;8343847;28;20430;-72
2023/11/27 16:50:24;;;;;;;;;;;6.20;99.90;;;;;;8359950;28;19929;-72
2023/11/27 16:54:26;;;;;;;;;;;6.20;99.90;;;;;;8341064;28;20010;-72
2023/11/27 16:58:31;;;;;;;;;;;6.10;99.90;;;;;;8361349;28;20434;-71
2023/11/27 17:02:34;;;;;;;;;;;6.00;99.90;;;;;;8362208;28;19929;-71
2023/11/27 17:06:35;;;;;;;;;;;5.90;99.90;;;;;;8359472;28;19928;-73
2023/11/27 17:10:40;;;;;;;;;;;5.90;99.90;;;;;;8362222;28;20365;-72
2023/11/27 17:14:43;;;;;;;;;;;5.80;99.90;;;;;;8366958;28;19960;-72
2023/11/27 17:18:44;;;;;;;;;;;5.70;99.90;;;;;;8366042;28;20042;-72
2023/11/27 17:22:46;;;;;;;;;;;5.60;99.90;;;;;;8360141;28;19979;-72
2023/11/27 17:27:00;;;;;;;;;;;5.50;99.90;;;;;;8365686;28;19980;-72
2023/11/27 17:31:02;;;;;;;;;;;5.40;99.90;;;;;;8365200;28;19968;-72
2023/11/27 17:35:05;;;;;;;;;;;5.30;99.90;;;;;;8380067;28;20011;-71
2023/11/27 17:39:06;;;;;;;;;;;5.20;99.90;;;;;;8361981;28;20277;-72
2023/11/27 17:43:10;;;;;;;;;;;5.10;99.90;;;;;;8363999;28;19932;-72
2023/11/27 17:47:12;;;;;;;;;;;5.00;99.90;;;;;;8363359;28;19928;-72
2023/11/27 17:51:14;;;;;;;;;;;5.00;99.90;;;;;;8363169;28;19932;-71
2023/11/27 17:55:16;;;;;;;;;;;4.90;99.90;;;;;;8364953;28;19924;-72
2023/11/27 17:59:18;;;;;;;;;;;4.90;99.90;;;;;;8363813;28;19935;-72
2023/11/27 18:03:20;;;;;;;;;;;4.80;99.90;;;;;;8362912;28;19924;-72
2023/11/27 18:07:22;;;;;;;;;;;4.80;99.90;;;;;;8362423;28;19930;-72
2023/11/27 18:11:23;;;;;;;;;;;4.80;99.90;;;;;;8368257;28;19933;-72
2023/11/27 18:15:25;;;;;;;;;;;4.70;99.90;;;;;;8360653;28;19928;-72
2023/11/27 18:19:27;;;;;;;;;;;4.70;99.90;;;;;;8373046;28;19925;-72
2023/11/27 18:23:28;;;;;;;;;;;4.60;99.90;;;;;;8362016;28;20015;-72
2023/11/27 18:27:31;;;;;;;;;;;4.60;99.90;;;;;;8356827;28;19952;-72
2023/11/27 18:31:34;;;;;;;;;;;4.50;99.90;;;;;;8342625;28;19933;-72
2023/11/27 18:35:37;;;;;;;;;;;4.40;99.90;;;;;;8357273;28;19970;-72
2023/11/27 18:39:39;;;;;;;;;;;4.40;99.90;;;;;;8340939;28;19968;-72
2023/11/27 18:43:43;;;;;;;;;;;4.30;99.90;;;;;;8364038;28;20300;-72
2023/11/27 18:47:46;;;;;;;;;;;4.30;99.90;;;;;;8359065;28;19933;-72
2023/11/27 18:51:47;;;;;;;;;;;4.30;99.90;;;;;;8343047;28;19960;-72
2023/11/27 18:55:49;;;;;;;;;;;4.20;99.90;;;;;;8359629;28;20644;-72
2023/11/27 18:59:51;;;;;;;;;;;4.20;99.90;;;;;;8359937;28;19936;-72
2023/11/27 19:03:53;;;;;;;;;;;4.10;99.90;;;;;;8364613;28;19928;-72
2023/11/27 19:07:54;;;;;;;;;;;4.10;99.90;;;;;;8354631;28;19932;-73
2023/11/27 19:11:56;;;;;;;;;;;4.10;99.90;;;;;;8355070;28;19932;-72
2023/11/27 19:15:58;;;;;;;;;;;4.00;99.90;;;;;;8370229;28;19932;-72
2023/11/27 19:20:00;;;;;;;;;;;4.00;99.90;;;;;;8355611;28;20002;-72
2023/11/27 19:24:02;;;;;;;;;;;3.90;99.90;;;;;;8358430;28;20280;-72
2023/11/27 19:28:03;;;;;;;;;;;3.80;99.90;;;;;;8355299;28;20467;-72
2023/11/27 19:32:07;;;;;;;;;;;3.80;99.90;;;;;;8355103;28;20010;-72
2023/11/27 19:36:22;;;;;;;;;;;3.70;99.90;;;;;;8354632;28;19929;-73
2023/11/27 19:40:24;;;;;;;;;;;3.70;99.90;;;;;;8338974;28;19931;-72
2023/11/27 19:44:26;;;;;;;;;;;3.70;99.90;;;;;;8374771;28;19925;-72
2023/11/27 19:48:29;;;;;;;;;;;3.60;99.90;;;;;;8353673;28;19929;-72
2023/11/27 19:52:30;;;;;;;;;;;3.60;99.90;;;;;;8358346;28;19995;-72
2023/11/27 19:56:32;;;;;;;;;;;3.50;99.90;;;;;;8357014;28;20372;-72
2023/11/27 20:00:34;;;;;;;;;;;3.50;99.90;;;;;;8357651;28;19940;-73
2023/11/27 20:04:36;;;;;;;;;;;3.50;99.90;;;;;;8357334;28;19937;-72
2023/11/27 20:08:39;;;;;;;;;;;3.50;99.90;;;;;;8360357;28;20283;-72
2023/11/27 20:12:41;;;;;;;;;;;3.50;99.90;;;;;;8358227;28;19929;-72
2023/11/27 20:16:43;;;;;;;;;;;3.50;99.90;;;;;;8354737;28;19971;-72
2023/11/27 20:20:44;;;;;;;;;;;3.40;99.90;;;;;;8358442;28;20019;-72
2023/11/27 20:24:47;;;;;;;;;;;3.50;99.90;;;;;;8356326;28;20394;-72
2023/11/27 20:28:49;;;;;;;;;;;3.50;99.90;;;;;;8358532;28;19925;-72
2023/11/27 20:32:55;;;;;;;;;;;3.50;99.90;;;;;;8366707;28;19981;-72
2023/11/27 20:36:58;;;;;;;;;;;3.50;99.90;;;;;;8359956;28;19932;-72
2023/11/27 20:41:00;;;;;;;;;;;3.50;99.90;;;;;;8357221;28;20292;-72
2023/11/27 20:45:03;;;;;;;;;;;3.50;99.90;;;;;;8362192;28;19935;-72
2023/11/27 20:49:05;;;;;;;;;;;3.60;99.90;;;;;;8368608;28;19990;-72
2023/11/27 20:53:07;;;;;;;;;;;3.60;99.90;;;;;;8356832;28;19925;-72
2023/11/27 20:57:08;;;;;;;;;;;3.60;99.90;;;;;;8362969;28;20335;-72
2023/11/27 21:01:10;;;;;;;;;;;3.60;99.90;;;;;;8364699;28;19975;-72
2023/11/27 21:05:12;;;;;;;;;;;3.60;99.90;;;;;;8363581;28;20326;-72
2023/11/27 21:09:14;;;;;;;;;;;3.60;99.90;;;;;;8358640;28;20350;-72
2023/11/27 21:13:17;;;;;;;;;;;3.60;99.90;;;;;;8347851;28;19960;-72
2023/11/27 21:17:19;;;;;;;;;;;3.60;99.90;;;;;;8361079;28;20295;-72
2023/11/27 21:21:21;;;;;;;;;;;3.60;99.90;;;;;;8360623;28;19971;-72
2023/11/27 21:25:23;;;;;;;;;;;3.60;99.90;;;;;;8358068;28;19933;-71
2023/11/27 21:29:25;;;;;;;;;;;3.60;99.90;;;;;;8343802;28;19929;-71
2023/11/27 21:33:26;;;;;;;;;;;3.60;99.90;;;;;;8345823;28;19951;-72
2023/11/27 21:37:28;;;;;;;;;;;3.60;99.90;;;;;;8356558;28;19974;-71
2023/11/27 21:41:32;;;;;;;;;;;3.50;99.90;;;;;;8360458;28;19929;-71
2023/11/27 21:45:34;;;;;;;;;;;3.60;99.90;;;;;;8357585;28;21273;-72
2023/11/27 21:49:36;;;;;;;;;;;3.60;99.90;;;;;;8359685;28;19936;-72
2023/11/27 21:53:37;;;;;;;;;;;3.60;99.90;;;;;;8362739;28;20283;-72
2023/11/27 21:57:39;;;;;;;;;;;3.60;99.90;;;;;;8345685;28;19936;-73
2023/11/27 22:01:41;;;;;;;;;;;3.60;99.90;;;;;;8378913;28;19970;-72
2023/11/27 22:05:43;;;;;;;;;;;3.60;99.90;;;;;;8376269;28;19963;-72
2023/11/27 22:09:51;;;;;;;;;;;3.70;99.90;;;;;;8403874;28;19925;-72
2023/11/27 22:13:53;;;;;;;;;;;3.70;99.90;;;;;;8393608;28;19969;-72
2023/11/27 22:17:54;;;;;;;;;;;3.70;99.90;;;;;;8362830;28;20296;-72
2023/11/27 22:37:07;;;;;;;;;;;3.80;99.90;;;;;;8395729;28;19935;-72
2023/11/27 22:41:12;;;;;;;;;;;3.90;99.90;;;;;;8375044;28;20829;-71
2023/11/27 22:45:14;;;;;;;;;;;3.80;99.90;;;;;;8372410;28;20381;-72
2023/11/27 22:49:15;;;;;;;;;;;3.90;99.90;;;;;;8389466;28;19925;-72
2023/11/27 22:53:17;;;;;;;;;;;3.90;99.90;;;;;;8396008;28;20391;-71
2023/11/27 22:57:19;;;;;;;;;;;3.90;99.90;;;;;;8391201;28;19924;-73
2023/11/27 23:01:20;;;;;;;;;;;3.90;99.90;;;;;;8374192;28;19932;-72
2023/11/27 23:05:23;;;;;;;;;;;3.90;99.90;;;;;;8378907;28;19952;-72
2023/11/27 23:09:25;;;;;;;;;;;3.80;99.90;;;;;;8384776;28;19932;-72
2023/11/27 23:13:28;;;;;;;;;;;3.80;99.90;;;;;;8386850;28;19929;-72
2023/11/27 23:17:31;;;;;;;;;;;3.80;99.90;;;;;;8371411;28;19928;-72
2023/11/27 23:21:33;;;;;;;;;;;3.80;99.90;;;;;;8385769;28;19931;-72
2023/11/27 23:25:37;;;;;;;;;;;3.80;99.90;;;;;;8393470;28;19924;-72
2023/11/27 23:29:39;;;;;;;;;;;3.80;99.90;;;;;;8384994;28;20426;-72
2023/11/27 23:33:40;;;;;;;;;;;3.80;99.90;;;;;;8396163;28;19931;-72
2023/11/27 23:37:42;;;;;;;;;;;3.80;99.90;;;;;;8381787;28;19924;-72
2023/11/27 23:41:44;;;;;;;;;;;3.80;99.90;;;;;;8392247;28;19925;-72
2023/11/27 23:45:45;;;;;;;;;;;3.80;99.90;;;;;;8392657;28;19975;-72
2023/11/27 23:49:47;;;;;;;;;;;3.80;99.90;;;;;;8386420;28;19979;-72
2023/11/27 23:53:49;;;;;;;;;;;3.80;99.90;;;;;;8394534;28;19972;-72
2023/11/27 23:57:51;;;;;;;;;;;3.70;99.90;;;;;;8371690;28;19971;-72
